Time;durP1;ratioP1;P1;durP2;ratioP2;P2;SDS_P1;SDS_P2;PMS_P1;PMS_P2;Temp;Humidity;BMP_temperature;BMP_pressure;BME280_temperature;BME280_humidity;BME280_pressure;Samples;Min_cycle;Max_cycle;Signal;HPM_P1;HPM_P2
2022/04/14 00:01:19;;;;;;;;;;;13.60;99.90;;;;;;4995855;28;19910;-77
2022/04/14 00:03:45;;;;;;;;;;;13.70;99.90;;;;;;4995741;28;20378;-76
2022/04/14 00:06:10;;;;;;;;;;;13.80;99.90;;;;;;4995715;28;20297;-78
2022/04/14 00:08:36;;;;;;;;;;;13.80;99.90;;;;;;4995888;28;19973;-77
2022/04/14 00:11:01;;;;;;;;;;;13.70;99.90;;;;;;4995648;28;19910;-78
2022/04/14 00:13:27;;;;;;;;;;;13.60;99.90;;;;;;4994295;28;20363;-77
2022/04/14 00:15:52;;;;;;;;;;;13.50;99.90;;;;;;4995077;28;19956;-77
2022/04/14 00:18:18;;;;;;;;;;;13.40;99.90;;;;;;4995675;28;19910;-78
2022/04/14 00:20:44;;;;;;;;;;;13.30;99.90;;;;;;4995462;28;20378;-78
2022/04/14 00:23:09;;;;;;;;;;;13.40;99.90;;;;;;4995457;28;19910;-78
2022/04/14 00:25:35;;;;;;;;;;;13.40;99.90;;;;;;4977859;28;20393;-78
2022/04/14 00:28:00;;;;;;;;;;;13.40;99.90;;;;;;4995300;28;19980;-77
2022/04/14 00:30:26;;;;;;;;;;;13.20;99.90;;;;;;4995519;28;20020;-78
2022/04/14 00:32:52;;;;;;;;;;;13.20;99.90;;;;;;4995305;28;19909;-76
2022/04/14 00:35:18;;;;;;;;;;;13.00;99.90;;;;;;4995208;28;19916;-77
2022/04/14 00:37:43;;;;;;;;;;;13.20;99.90;;;;;;4995092;28;19933;-78
2022/04/14 00:40:09;;;;;;;;;;;13.00;99.90;;;;;;4995218;28;19993;-77
2022/04/14 00:42:35;;;;;;;;;;;13.00;99.90;;;;;;4995009;28;19914;-77
2022/04/14 00:45:00;;;;;;;;;;;12.90;99.90;;;;;;4994641;28;19910;-77
2022/04/14 00:47:26;;;;;;;;;;;12.80;99.90;;;;;;4993612;28;19914;-77
2022/04/14 00:49:52;;;;;;;;;;;12.80;99.90;;;;;;4994795;28;19914;-77
2022/04/14 00:52:21;;;;;;;;;;;12.80;99.90;;;;;;4994869;28;19910;-77
2022/04/14 00:54:46;;;;;;;;;;;13.00;99.90;;;;;;4994831;28;19910;-79
2022/04/14 00:57:12;;;;;;;;;;;13.30;99.90;;;;;;4994853;28;20012;-77
2022/04/14 00:59:38;;;;;;;;;;;13.30;99.90;;;;;;4994704;28;19960;-77
2022/04/14 01:02:03;;;;;;;;;;;13.30;99.90;;;;;;4994714;28;20408;-77
2022/04/14 01:04:31;;;;;;;;;;;13.00;99.90;;;;;;4993398;28;19909;-77
2022/04/14 01:06:56;;;;;;;;;;;12.60;99.90;;;;;;4977222;28;19909;-77
2022/04/14 01:09:26;;;;;;;;;;;12.50;99.90;;;;;;4994508;28;19960;-76
2022/04/14 01:11:55;;;;;;;;;;;12.40;99.90;;;;;;4994697;28;19914;-77
2022/04/14 01:14:25;;;;;;;;;;;12.50;99.90;;;;;;4994534;28;20302;-76
2022/04/14 01:16:51;;;;;;;;;;;12.20;99.90;;;;;;4994503;28;19909;-77
2022/04/14 01:19:16;;;;;;;;;;;12.10;99.90;;;;;;4994703;28;19910;-78
2022/04/14 01:21:45;;;;;;;;;;;12.20;99.90;;;;;;4994416;28;19917;-78
2022/04/14 01:24:11;;;;;;;;;;;12.30;99.90;;;;;;4994641;28;19911;-77
2022/04/14 01:26:37;;;;;;;;;;;12.40;99.90;;;;;;4994540;28;19917;-77
2022/04/14 01:29:03;;;;;;;;;;;12.40;99.90;;;;;;4994333;28;19921;-76
2022/04/14 01:31:29;;;;;;;;;;;12.60;99.90;;;;;;4995074;28;19932;-78
2022/04/14 01:33:54;;;;;;;;;;;12.70;99.90;;;;;;4994471;28;20382;-78
2022/04/14 01:36:20;;;;;;;;;;;12.60;99.90;;;;;;4994272;28;19909;-76
2022/04/14 01:38:46;;;;;;;;;;;12.20;99.90;;;;;;4994303;28;19910;-77
2022/04/14 01:41:11;;;;;;;;;;;11.60;99.90;;;;;;4994303;28;19917;-76
2022/04/14 01:43:37;;;;;;;;;;;11.10;99.90;;;;;;4994209;28;19932;-77
2022/04/14 01:46:08;;;;;;;;;;;10.80;99.90;;;;;;4994394;28;19957;-78
2022/04/14 01:48:34;;;;;;;;;;;10.80;99.90;;;;;;4994260;28;19910;-77
2022/04/14 01:51:00;;;;;;;;;;;10.70;99.90;;;;;;4994467;28;19993;-76
2022/04/14 01:53:25;;;;;;;;;;;10.70;99.90;;;;;;4994358;28;19964;-77
2022/04/14 01:55:51;;;;;;;;;;;10.90;99.90;;;;;;4976677;28;19917;-78
2022/04/14 01:58:16;;;;;;;;;;;11.10;99.90;;;;;;4997679;28;19913;-77
2022/04/14 02:00:42;;;;;;;;;;;11.60;99.90;;;;;;4998157;28;19917;-77
2022/04/14 02:03:08;;;;;;;;;;;11.80;99.90;;;;;;4997904;28;19933;-76
2022/04/14 02:05:33;;;;;;;;;;;11.70;99.90;;;;;;4997915;28;19910;-77
2022/04/14 02:07:59;;;;;;;;;;;11.60;99.90;;;;;;4998048;28;19957;-77
2022/04/14 02:10:24;;;;;;;;;;;11.40;99.90;;;;;;4997882;28;20447;-77
2022/04/14 02:12:50;;;;;;;;;;;11.20;99.90;;;;;;4997842;28;20431;-77
2022/04/14 02:15:16;;;;;;;;;;;11.10;99.90;;;;;;4997617;28;19922;-77
2022/04/14 02:17:42;;;;;;;;;;;11.10;99.90;;;;;;4998051;28;19910;-76
2022/04/14 02:20:08;;;;;;;;;;;11.30;99.90;;;;;;4980686;28;19960;-77
2022/04/14 02:22:40;;;;;;;;;;;11.30;99.90;;;;;;4997654;28;19917;-76
2022/04/14 02:25:06;;;;;;;;;;;11.50;99.90;;;;;;4997963;28;19977;-78
2022/04/14 02:27:31;;;;;;;;;;;11.40;99.90;;;;;;4997605;28;19913;-77
2022/04/14 02:29:57;;;;;;;;;;;11.60;99.90;;;;;;4997971;28;19921;-77
2022/04/14 02:32:22;;;;;;;;;;;11.70;99.90;;;;;;4997414;28;20321;-77
2022/04/14 02:34:48;;;;;;;;;;;11.60;99.90;;;;;;4997614;28;19917;-77
2022/04/14 02:37:14;;;;;;;;;;;11.40;99.90;;;;;;4997554;28;19909;-77
2022/04/14 02:39:39;;;;;;;;;;;11.40;99.90;;;;;;4997304;28;19910;-77
2022/04/14 02:42:05;;;;;;;;;;;11.40;99.90;;;;;;4979726;28;19992;-78
2022/04/14 02:44:31;;;;;;;;;;;11.40;99.90;;;;;;4997272;28;19956;-77
2022/04/14 02:46:56;;;;;;;;;;;11.50;99.90;;;;;;4995886;28;20275;-77
2022/04/14 02:49:23;;;;;;;;;;;11.60;99.90;;;;;;4979564;28;19961;-76
2022/04/14 02:51:49;;;;;;;;;;;11.30;99.90;;;;;;4997106;28;19910;-76
2022/04/14 02:54:14;;;;;;;;;;;11.20;99.90;;;;;;4997113;28;19921;-76
2022/04/14 02:56:40;;;;;;;;;;;11.20;99.90;;;;;;4997108;28;19933;-77
2022/04/14 02:59:05;;;;;;;;;;;11.00;99.90;;;;;;4997089;28;19914;-77
2022/04/14 03:01:31;;;;;;;;;;;10.90;99.90;;;;;;4996955;28;20060;-77
2022/04/14 03:03:56;;;;;;;;;;;10.90;99.90;;;;;;4997236;28;19917;-77
2022/04/14 03:06:22;;;;;;;;;;;11.00;99.90;;;;;;4996850;28;19978;-77
2022/04/14 03:08:48;;;;;;;;;;;11.00;99.90;;;;;;4995901;28;19910;-77
2022/04/14 03:11:13;;;;;;;;;;;11.00;99.90;;;;;;4996720;28;19917;-77
2022/04/14 03:13:39;;;;;;;;;;;10.70;99.90;;;;;;4996719;28;19917;-76
2022/04/14 03:16:05;;;;;;;;;;;10.60;99.90;;;;;;4996477;28;19925;-78
2022/04/14 03:18:30;;;;;;;;;;;10.70;99.90;;;;;;4979097;28;19993;-77
2022/04/14 03:20:56;;;;;;;;;;;11.10;99.90;;;;;;4996565;28;19910;-76
2022/04/14 03:23:23;;;;;;;;;;;11.20;99.90;;;;;;4996503;28;20313;-76
2022/04/14 03:25:49;;;;;;;;;;;10.70;99.90;;;;;;4996478;28;20004;-78
2022/04/14 03:28:14;;;;;;;;;;;10.50;99.90;;;;;;4996624;28;20412;-78
2022/04/14 03:30:40;;;;;;;;;;;10.30;99.90;;;;;;4996440;28;19921;-77
2022/04/14 03:33:06;;;;;;;;;;;10.20;99.90;;;;;;4996535;28;19910;-78
2022/04/14 03:35:31;;;;;;;;;;;10.40;99.90;;;;;;4996184;28;19949;-79
2022/04/14 03:37:57;;;;;;;;;;;10.60;99.90;;;;;;4996435;28;19910;-77
2022/04/14 03:40:22;;;;;;;;;;;10.90;99.90;;;;;;4996547;28;20401;-77
2022/04/14 03:42:48;;;;;;;;;;;10.90;99.90;;;;;;4996154;28;19910;-78
2022/04/14 03:45:14;;;;;;;;;;;11.00;99.90;;;;;;4996072;28;20398;-76
2022/04/14 03:47:39;;;;;;;;;;;10.90;99.90;;;;;;4994801;28;19914;-77
2022/04/14 03:50:05;;;;;;;;;;;10.70;99.90;;;;;;4995956;28;20344;-76
2022/04/14 03:52:31;;;;;;;;;;;10.60;99.90;;;;;;4996030;28;19913;-76
2022/04/14 03:54:57;;;;;;;;;;;10.30;99.90;;;;;;4995957;28;19909;-77
2022/04/14 03:57:23;;;;;;;;;;;10.30;99.90;;;;;;4978363;28;19949;-77
2022/04/14 03:59:49;;;;;;;;;;;10.20;99.90;;;;;;4996150;28;19909;-76
2022/04/14 04:02:15;;;;;;;;;;;10.10;99.90;;;;;;4995755;28;20366;-78
2022/04/14 04:04:40;;;;;;;;;;;10.40;99.90;;;;;;4978273;28;19909;-76
2022/04/14 04:07:06;;;;;;;;;;;10.70;99.90;;;;;;4978215;28;19910;-78
2022/04/14 04:09:35;;;;;;;;;;;10.80;99.90;;;;;;4995515;28;19921;-77
2022/04/14 04:12:01;;;;;;;;;;;10.80;99.90;;;;;;4995664;28;20004;-77
2022/04/14 04:14:27;;;;;;;;;;;10.70;99.90;;;;;;4994140;28;19929;-76
2022/04/14 04:16:52;;;;;;;;;;;10.60;99.90;;;;;;4995497;28;19914;-76
2022/04/14 04:19:18;;;;;;;;;;;10.50;99.90;;;;;;4995671;28;19917;-77
2022/04/14 04:21:43;;;;;;;;;;;10.60;99.90;;;;;;4995424;28;19997;-78
2022/04/14 04:24:09;;;;;;;;;;;10.60;99.90;;;;;;4995535;28;19917;-77
2022/04/14 04:26:35;;;;;;;;;;;10.50;99.90;;;;;;4977844;28;19913;-76
2022/04/14 04:29:00;;;;;;;;;;;10.40;99.90;;;;;;4995201;28;19913;-77
2022/04/14 04:31:26;;;;;;;;;;;10.00;99.90;;;;;;4995206;28;19913;-76
2022/04/14 04:33:51;;;;;;;;;;;9.90;99.90;;;;;;4995332;28;19910;-78
2022/04/14 04:36:17;;;;;;;;;;;9.80;99.90;;;;;;4995172;28;20358;-77
2022/04/14 04:38:43;;;;;;;;;;;10.10;99.90;;;;;;4993833;28;19914;-77
2022/04/14 04:41:08;;;;;;;;;;;10.20;99.90;;;;;;4995125;28;19917;-77
2022/04/14 04:43:34;;;;;;;;;;;10.30;99.90;;;;;;4995048;28;19914;-78
2022/04/14 04:46:00;;;;;;;;;;;10.30;99.90;;;;;;4995050;28;19960;-77
2022/04/14 04:48:25;;;;;;;;;;;10.30;99.90;;;;;;4994945;28;19918;-77
2022/04/14 04:50:51;;;;;;;;;;;10.30;99.90;;;;;;4995161;28;19914;-77
2022/04/14 04:53:17;;;;;;;;;;;10.20;99.90;;;;;;4995092;28;20286;-76
2022/04/14 04:55:43;;;;;;;;;;;10.00;99.90;;;;;;4994841;28;19910;-77
2022/04/14 04:58:08;;;;;;;;;;;9.80;99.90;;;;;;4994760;28;19916;-76
2022/04/14 05:00:34;;;;;;;;;;;9.80;99.90;;;;;;4994944;28;19910;-77
2022/04/14 05:02:59;;;;;;;;;;;9.70;99.90;;;;;;4994729;28;19945;-76
2022/04/14 05:05:25;;;;;;;;;;;9.90;99.90;;;;;;4994762;28;20279;-75
2022/04/14 05:07:50;;;;;;;;;;;10.10;99.90;;;;;;4994668;28;19910;-77
2022/04/14 05:10:17;;;;;;;;;;;9.90;99.90;;;;;;4994503;28;19917;-77
2022/04/14 05:12:42;;;;;;;;;;;9.60;99.90;;;;;;4995045;28;19910;-76
2022/04/14 05:15:08;;;;;;;;;;;9.30;99.90;;;;;;4994323;28;20306;-77
2022/04/14 05:17:34;;;;;;;;;;;9.30;99.90;;;;;;4993270;28;19937;-77
2022/04/14 05:19:59;;;;;;;;;;;9.10;99.90;;;;;;4994555;28;19914;-77
2022/04/14 05:22:25;;;;;;;;;;;9.10;99.90;;;;;;4994431;28;20370;-78
2022/04/14 05:24:51;;;;;;;;;;;9.20;99.90;;;;;;4994410;28;19960;-76
2022/04/14 05:27:16;;;;;;;;;;;9.20;99.90;;;;;;4994331;28;20405;-78
2022/04/14 05:29:42;;;;;;;;;;;9.50;99.90;;;;;;4976860;28;19914;-77
2022/04/14 05:32:08;;;;;;;;;;;9.50;99.90;;;;;;4993907;28;19910;-77
2022/04/14 05:34:33;;;;;;;;;;;9.50;99.90;;;;;;4994327;28;19914;-77
2022/04/14 05:36:59;;;;;;;;;;;9.80;99.90;;;;;;4994587;28;20040;-78
2022/04/14 05:39:24;;;;;;;;;;;9.60;99.90;;;;;;4994293;28;20302;-76
2022/04/14 05:41:50;;;;;;;;;;;9.80;99.90;;;;;;4994217;28;19913;-76
2022/04/14 05:44:17;;;;;;;;;;;10.00;99.90;;;;;;4994221;28;19910;-77
2022/04/14 05:46:42;;;;;;;;;;;10.00;99.90;;;;;;4976728;28;19933;-76
2022/04/14 05:49:08;;;;;;;;;;;9.90;99.90;;;;;;4994137;28;20374;-77
2022/04/14 05:51:33;;;;;;;;;;;9.80;99.90;;;;;;4994427;28;19952;-76
2022/04/14 05:53:59;;;;;;;;;;;9.70;99.90;;;;;;4994209;28;20367;-78
2022/04/14 05:56:25;;;;;;;;;;;9.80;99.90;;;;;;4994080;28;19921;-77
2022/04/14 05:58:50;;;;;;;;;;;10.00;99.90;;;;;;4994113;28;19993;-77
2022/04/14 06:01:16;;;;;;;;;;;10.00;99.90;;;;;;4994362;28;19914;-77
2022/04/14 06:03:41;;;;;;;;;;;9.90;99.90;;;;;;4994062;28;19917;-78
2022/04/14 06:06:08;;;;;;;;;;;10.10;99.90;;;;;;4994015;28;19917;-78
2022/04/14 06:08:34;;;;;;;;;;;10.20;99.90;;;;;;4993989;28;19996;-77
2022/04/14 06:11:00;;;;;;;;;;;10.30;99.90;;;;;;4993859;28;20001;-78
2022/04/14 06:13:25;;;;;;;;;;;10.30;99.90;;;;;;4994013;28;19921;-77
2022/04/14 06:15:51;;;;;;;;;;;10.60;99.90;;;;;;4993595;28;20397;-77
2022/04/14 06:18:17;;;;;;;;;;;10.80;99.90;;;;;;4993918;28;19909;-78
2022/04/14 06:20:47;;;;;;;;;;;11.10;99.90;;;;;;4994049;28;19949;-77
2022/04/14 06:23:16;;;;;;;;;;;11.60;99.90;;;;;;4993901;28;19956;-77
2022/04/14 06:25:45;;;;;;;;;;;12.20;99.90;;;;;;4993928;28;20382;-77
2022/04/14 06:28:11;;;;;;;;;;;12.70;99.90;;;;;;4992579;28;20374;-77
2022/04/14 06:30:36;;;;;;;;;;;13.10;99.90;;;;;;4993799;28;19921;-77
2022/04/14 06:33:03;;;;;;;;;;;13.60;99.90;;;;;;4993944;28;19917;-77
2022/04/14 06:35:28;;;;;;;;;;;14.00;99.90;;;;;;4993871;28;19973;-79
2022/04/14 06:37:54;;;;;;;;;;;14.40;99.90;;;;;;4993770;28;20370;-78
2022/04/14 06:40:21;;;;;;;;;;;14.70;99.90;;;;;;4993788;28;19960;-78
2022/04/14 06:42:47;;;;;;;;;;;15.00;99.90;;;;;;4993726;28;19917;-79
2022/04/14 06:45:12;;;;;;;;;;;15.40;99.90;;;;;;4996788;28;19917;-78
2022/04/14 06:47:38;;;;;;;;;;;15.20;99.90;;;;;;4997210;28;19910;-78
2022/04/14 06:50:04;;;;;;;;;;;15.50;99.90;;;;;;4997114;28;20313;-78
2022/04/14 06:52:29;;;;;;;;;;;15.30;99.90;;;;;;4997581;28;19910;-77
2022/04/14 06:54:55;;;;;;;;;;;15.30;99.90;;;;;;4997124;28;20001;-77
2022/04/14 06:57:20;;;;;;;;;;;15.40;99.90;;;;;;4997042;28;20293;-78
2022/04/14 06:59:46;;;;;;;;;;;14.80;99.90;;;;;;4997034;28;19914;-77
2022/04/14 07:02:12;;;;;;;;;;;15.40;99.90;;;;;;4996975;28;19965;-77
2022/04/14 07:04:38;;;;;;;;;;;15.80;99.90;;;;;;4979453;28;20386;-78
2022/04/14 07:07:04;;;;;;;;;;;15.80;99.90;;;;;;4996874;28;20333;-78
2022/04/14 07:09:32;;;;;;;;;;;16.30;99.90;;;;;;4996776;28;19914;-78
2022/04/14 07:12:01;;;;;;;;;;;16.20;99.90;;;;;;4996822;28;19910;-78
2022/04/14 07:14:27;;;;;;;;;;;16.50;99.90;;;;;;4996652;28;19925;-77
2022/04/14 07:16:55;;;;;;;;;;;16.90;99.90;;;;;;4996655;28;19909;-77
2022/04/14 07:19:21;;;;;;;;;;;17.30;99.90;;;;;;4996710;28;19910;-78
2022/04/14 07:21:46;;;;;;;;;;;17.40;99.90;;;;;;4996637;28;20382;-78
2022/04/14 07:24:12;;;;;;;;;;;17.20;99.90;;;;;;4996970;28;19957;-77
2022/04/14 07:26:38;;;;;;;;;;;17.40;99.90;;;;;;4995070;28;19960;-78
2022/04/14 07:29:04;;;;;;;;;;;17.70;99.90;;;;;;4996360;28;19937;-78
2022/04/14 07:31:33;;;;;;;;;;;18.10;99.90;;;;;;4978908;28;20370;-79
2022/04/14 07:33:59;;;;;;;;;;;18.90;99.90;;;;;;4996337;28;19910;-78
2022/04/14 07:36:27;;;;;;;;;;;18.70;99.90;;;;;;4996341;28;19913;-79
2022/04/14 07:38:53;;;;;;;;;;;19.50;99.90;;;;;;4996267;28;19909;-78
2022/04/14 07:41:19;;;;;;;;;;;20.10;99.90;;;;;;4996237;28;20367;-77
2022/04/14 07:43:44;;;;;;;;;;;20.40;99.90;;;;;;4996159;28;19914;-78
2022/04/14 07:46:10;;;;;;;;;;;20.50;99.90;;;;;;4996163;28;20278;-78
2022/04/14 07:48:36;;;;;;;;;;;20.80;99.90;;;;;;4996266;28;19916;-78
2022/04/14 07:51:02;;;;;;;;;;;20.90;99.90;;;;;;4978497;28;20037;-77
2022/04/14 07:53:28;;;;;;;;;;;21.70;99.90;;;;;;4978502;28;19910;-79
2022/04/14 07:55:54;;;;;;;;;;;22.40;98.70;;;;;;4996142;28;19917;-78
2022/04/14 07:58:20;;;;;;;;;;;22.70;96.50;;;;;;4995944;28;19910;-79
2022/04/14 08:00:46;;;;;;;;;;;21.20;99.90;;;;;;4995827;28;19972;-77
2022/04/14 08:03:12;;;;;;;;;;;21.80;98.70;;;;;;4978349;28;19924;-78
2022/04/14 08:05:39;;;;;;;;;;;22.00;96.90;;;;;;4995854;28;19910;-79
2022/04/14 08:08:05;;;;;;;;;;;22.50;96.80;;;;;;4978168;28;20412;-78
2022/04/14 08:10:31;;;;;;;;;;;23.10;95.40;;;;;;4978010;28;19974;-78
2022/04/14 08:12:57;;;;;;;;;;;23.10;94.50;;;;;;4995996;28;19910;-79
2022/04/14 08:15:23;;;;;;;;;;;23.00;94.60;;;;;;4995478;28;19922;-79
2022/04/14 08:17:49;;;;;;;;;;;23.70;93.80;;;;;;4995561;28;20333;-79
2022/04/14 08:20:16;;;;;;;;;;;25.10;89.50;;;;;;4995462;28;19914;-78
2022/04/14 08:22:48;;;;;;;;;;;25.40;89.50;;;;;;4995716;28;19990;-79
2022/04/14 08:25:21;;;;;;;;;;;25.80;83.00;;;;;;4995516;28;19960;-79
2022/04/14 08:27:47;;;;;;;;;;;25.80;83.80;;;;;;4995319;28;20370;-78
2022/04/14 08:30:14;;;;;;;;;;;26.20;82.60;;;;;;4977779;28;20053;-79
2022/04/14 08:32:39;;;;;;;;;;;27.40;78.50;;;;;;4995682;28;19910;-80
2022/04/14 08:35:05;;;;;;;;;;;29.20;72.80;;;;;;4977708;28;19914;-79
2022/04/14 08:37:31;;;;;;;;;;;30.10;67.00;;;;;;4995272;28;19910;-79
2022/04/14 08:39:57;;;;;;;;;;;29.20;66.90;;;;;;4995078;28;19957;-79
2022/04/14 08:42:38;;;;;;;;;;;28.40;66.90;;;;;;4995091;28;19910;-79
2022/04/14 08:45:05;;;;;;;;;;;28.60;69.10;;;;;;4993500;28;20385;-80
2022/04/14 08:47:31;;;;;;;;;;;29.30;65.90;;;;;;4995308;28;20000;-78
2022/04/14 08:49:57;;;;;;;;;;;29.60;64.60;;;;;;4994825;28;19952;-80
2022/04/14 08:52:25;;;;;;;;;;;29.90;62.40;;;;;;4994879;28;20382;-79
2022/04/14 08:54:50;;;;;;;;;;;29.60;62.40;;;;;;4993581;28;20017;-79
2022/04/14 08:57:16;;;;;;;;;;;29.70;62.70;;;;;;4993568;28;19945;-79
2022/04/14 08:59:43;;;;;;;;;;;29.50;63.80;;;;;;4995135;28;20008;-79
2022/04/14 09:02:12;;;;;;;;;;;29.50;61.70;;;;;;4995008;28;20271;-78
2022/04/14 09:04:41;;;;;;;;;;;28.90;61.20;;;;;;4994677;28;19910;-78
2022/04/14 09:07:06;;;;;;;;;;;30.70;60.80;;;;;;4993931;28;19936;-79
2022/04/14 09:09:36;;;;;;;;;;;31.30;60.00;;;;;;4994537;28;19914;-80
2022/04/14 09:12:02;;;;;;;;;;;30.40;59.90;;;;;;4994579;28;20005;-79
2022/04/14 09:14:29;;;;;;;;;;;30.60;59.60;;;;;;4994337;28;19961;-79
2022/04/14 09:16:55;;;;;;;;;;;31.60;58.50;;;;;;4994538;28;19917;-79
2022/04/14 09:19:20;;;;;;;;;;;32.50;55.80;;;;;;4977037;28;19910;-79
2022/04/14 09:22:07;;;;;;;;;;;32.40;56.20;;;;;;4994567;28;19910;-80
2022/04/14 09:24:42;;;;;;;;;;;32.80;55.00;;;;;;4994428;28;20000;-78
2022/04/14 09:27:09;;;;;;;;;;;32.70;55.70;;;;;;4976997;28;20331;-79
2022/04/14 09:29:35;;;;;;;;;;;33.60;53.40;;;;;;4994397;28;19944;-80
2022/04/14 09:32:01;;;;;;;;;;;33.30;50.80;;;;;;4976733;28;19997;-80
2022/04/14 09:34:50;;;;;;;;;;;33.80;49.90;;;;;;4993030;28;20005;-79
2022/04/14 09:37:15;;;;;;;;;;;33.40;49.70;;;;;;4976571;28;19914;-80
2022/04/14 09:39:58;;;;;;;;;;;34.00;49.60;;;;;;4994260;28;19916;-80
2022/04/14 09:42:25;;;;;;;;;;;34.70;49.30;;;;;;4994325;28;20039;-80
2022/04/14 09:44:53;;;;;;;;;;;36.30;46.70;;;;;;4976795;28;19909;-80
2022/04/14 09:47:36;;;;;;;;;;;36.70;46.70;;;;;;4994344;28;20408;-77
2022/04/14 09:50:02;;;;;;;;;;;36.90;45.20;;;;;;4992675;28;20034;-78
2022/04/14 09:52:27;;;;;;;;;;;37.90;43.30;;;;;;4992821;28;20362;-79
2022/04/14 09:55:06;;;;;;;;;;;38.80;42.50;;;;;;4994142;28;19910;-79
2022/04/14 09:57:32;;;;;;;;;;;39.60;42.10;;;;;;4994277;28;19910;-78
2022/04/14 09:59:58;;;;;;;;;;;39.30;41.30;;;;;;4994013;28;19921;-77
2022/04/14 10:02:26;;;;;;;;;;;38.20;42.20;;;;;;4994050;28;20282;-77
2022/04/14 10:04:51;;;;;;;;;;;39.00;42.00;;;;;;4994095;28;19910;-78
2022/04/14 10:07:18;;;;;;;;;;;41.00;41.10;;;;;;4994352;28;19961;-78
2022/04/14 10:09:45;;;;;;;;;;;40.20;39.90;;;;;;4994052;28;19914;-79
2022/04/14 10:12:19;;;;;;;;;;;40.20;39.10;;;;;;4994126;28;19914;-79
2022/04/14 10:14:58;;;;;;;;;;;39.40;39.50;;;;;;4993852;28;20402;-77
2022/04/14 10:17:28;;;;;;;;;;;41.90;39.30;;;;;;4994407;28;20286;-78
2022/04/14 10:19:54;;;;;;;;;;;39.40;37.50;;;;;;4997673;28;19921;-78
2022/04/14 10:22:20;;;;;;;;;;;39.90;39.30;;;;;;4997668;28;19910;-78
2022/04/14 10:24:46;;;;;;;;;;;41.70;39.00;;;;;;4997687;28;19960;-78
2022/04/14 10:27:13;;;;;;;;;;;42.20;37.30;;;;;;4997604;28;20278;-78
2022/04/14 10:29:39;;;;;;;;;;;42.40;37.10;;;;;;4980069;28;19910;-79
2022/04/14 10:32:05;;;;;;;;;;;43.70;36.40;;;;;;4997519;28;19909;-80
2022/04/14 10:34:31;;;;;;;;;;;42.20;35.80;;;;;;4997483;28;19910;-78
2022/04/14 10:36:57;;;;;;;;;;;41.30;36.60;;;;;;4997507;28;19957;-80
2022/04/14 10:39:23;;;;;;;;;;;42.80;35.70;;;;;;4997280;28;19920;-78
2022/04/14 10:41:50;;;;;;;;;;;43.70;35.90;;;;;;4997330;28;19996;-79
2022/04/14 10:44:19;;;;;;;;;;;42.40;34.50;;;;;;4979739;28;19916;-79
2022/04/14 10:46:48;;;;;;;;;;;43.70;34.90;;;;;;4979688;28;20386;-80
2022/04/14 10:49:14;;;;;;;;;;;44.10;34.10;;;;;;4979664;28;19914;-80
2022/04/14 10:51:40;;;;;;;;;;;44.60;32.70;;;;;;4997126;28;19945;-80
2022/04/14 10:54:06;;;;;;;;;;;44.80;33.20;;;;;;4997275;28;20033;-78
2022/04/14 10:56:41;;;;;;;;;;;45.60;32.50;;;;;;4997152;28;19914;-79
2022/04/14 10:59:11;;;;;;;;;;;44.50;31.40;;;;;;4979440;28;19960;-80
2022/04/14 11:01:58;;;;;;;;;;;46.50;29.80;;;;;;4997200;28;20294;-80
2022/04/14 11:04:31;;;;;;;;;;;46.10;31.10;;;;;;4997282;28;20388;-79
2022/04/14 11:06:59;;;;;;;;;;;45.60;31.70;;;;;;4996927;28;19916;-80
2022/04/14 11:09:42;;;;;;;;;;;48.50;31.10;;;;;;4996826;28;19910;-80
2022/04/14 11:12:09;;;;;;;;;;;45.30;30.00;;;;;;4979287;28;19945;-80
2022/04/14 11:14:45;;;;;;;;;;;45.20;31.50;;;;;;4996513;28;19929;-80
2022/04/14 11:17:29;;;;;;;;;;;45.80;29.40;;;;;;4996635;28;19960;-79
2022/04/14 11:19:55;;;;;;;;;;;43.80;30.20;;;;;;4979043;28;19914;-79
2022/04/14 11:22:20;;;;;;;;;;;43.40;31.10;;;;;;4996768;28;19936;-78
2022/04/14 11:24:46;;;;;;;;;;;44.30;29.70;;;;;;4996570;28;19910;-79
2022/04/14 11:27:12;;;;;;;;;;;45.30;30.30;;;;;;4996488;28;19960;-79
2022/04/14 11:29:45;;;;;;;;;;;45.00;30.40;;;;;;4978206;28;19910;-77
2022/04/14 11:32:11;;;;;;;;;;;44.00;30.20;;;;;;4996601;28;20381;-79
2022/04/14 11:34:37;;;;;;;;;;;44.70;30.00;;;;;;4996480;28;19917;-78
2022/04/14 11:37:03;;;;;;;;;;;46.50;29.70;;;;;;4996321;28;20044;-79
2022/04/14 11:39:29;;;;;;;;;;;43.80;30.00;;;;;;4994909;28;19981;-78
2022/04/14 11:42:02;;;;;;;;;;;48.00;30.00;;;;;;4996265;28;19918;-79
2022/04/14 11:44:31;;;;;;;;;;;47.50;28.90;;;;;;4994252;28;19992;-78
2022/04/14 11:46:59;;;;;;;;;;;45.30;29.90;;;;;;4996263;28;19910;-79
2022/04/14 11:49:25;;;;;;;;;;;46.40;29.90;;;;;;4996075;28;19909;-79
2022/04/14 11:51:52;;;;;;;;;;;46.10;29.20;;;;;;4996289;28;19910;-79
2022/04/14 11:54:21;;;;;;;;;;;44.60;29.80;;;;;;4995981;28;19914;-79
2022/04/14 11:56:52;;;;;;;;;;;47.40;29.60;;;;;;4995884;28;20385;-79
2022/04/14 11:59:34;;;;;;;;;;;48.80;28.90;;;;;;4995974;28;19964;-78
2022/04/14 12:02:07;;;;;;;;;;;45.10;28.90;;;;;;4994581;28;19910;-78
2022/04/14 12:04:40;;;;;;;;;;;45.50;30.40;;;;;;4995779;28;19956;-79
2022/04/14 12:07:06;;;;;;;;;;;45.10;29.00;;;;;;4978295;28;19914;-80
2022/04/14 12:09:33;;;;;;;;;;;45.30;28.60;;;;;;4978168;28;19910;-78
2022/04/14 12:12:15;;;;;;;;;;;46.90;29.90;;;;;;4995627;28;19956;-79
2022/04/14 12:14:41;;;;;;;;;;;46.50;29.50;;;;;;4995372;28;19922;-78
2022/04/14 12:17:07;;;;;;;;;;;48.50;29.20;;;;;;4995582;28;19945;-78
2022/04/14 12:19:43;;;;;;;;;;;47.90;28.70;;;;;;4977985;28;19976;-78
2022/04/14 12:22:09;;;;;;;;;;;46.80;28.70;;;;;;4995593;28;20294;-78
2022/04/14 12:24:34;;;;;;;;;;;46.60;28.70;;;;;;4995693;28;19910;-80
2022/04/14 12:27:00;;;;;;;;;;;47.90;29.00;;;;;;4995396;28;19916;-79
2022/04/14 12:29:29;;;;;;;;;;;52.40;28.80;;;;;;4995442;28;20001;-79
2022/04/14 12:32:11;;;;;;;;;;;52.80;27.60;;;;;;4995262;28;19910;-77
2022/04/14 12:34:43;;;;;;;;;;;52.90;27.90;;;;;;4995506;28;20390;-80
2022/04/14 12:37:13;;;;;;;;;;;51.20;27.00;;;;;;4977667;28;20386;-79
2022/04/14 12:39:52;;;;;;;;;;;52.40;27.90;;;;;;4993735;28;19914;-79
2022/04/14 12:42:18;;;;;;;;;;;53.20;27.50;;;;;;4995140;28;20017;-80
2022/04/14 12:44:44;;;;;;;;;;;52.10;27.70;;;;;;4977566;28;20394;-79
2022/04/14 12:47:14;;;;;;;;;;;55.60;27.40;;;;;;4995000;28;19910;-79
2022/04/14 12:49:40;;;;;;;;;;;54.50;27.00;;;;;;4995002;28;19917;-79
2022/04/14 12:52:07;;;;;;;;;;;51.30;27.40;;;;;;4977412;28;19914;-78
2022/04/14 12:54:34;;;;;;;;;;;51.50;27.50;;;;;;4995305;28;19917;-80
2022/04/14 12:57:01;;;;;;;;;;;50.90;27.60;;;;;;4994975;28;19910;-79
2022/04/14 12:59:27;;;;;;;;;;;49.50;27.40;;;;;;4994771;28;19914;-79
2022/04/14 13:01:54;;;;;;;;;;;49.50;27.50;;;;;;4994808;28;19960;-78
2022/04/14 13:04:30;;;;;;;;;;;51.20;27.60;;;;;;4995098;28;19964;-79
2022/04/14 13:07:01;;;;;;;;;;;53.10;27.70;;;;;;4994889;28;19955;-80
2022/04/14 13:09:27;;;;;;;;;;;45.10;29.10;;;;;;4994631;28;20424;-77
2022/04/14 13:11:53;;;;;;;;;;;44.60;29.90;;;;;;4977055;28;20000;-78
2022/04/14 13:14:20;;;;;;;;;;;46.50;29.50;;;;;;4994416;28;20386;-78
2022/04/14 13:16:46;;;;;;;;;;;45.30;28.10;;;;;;4994459;28;20389;-78
2022/04/14 13:19:15;;;;;;;;;;;38.90;30.70;;;;;;4993850;28;20314;-77
2022/04/14 13:21:41;;;;;;;;;;;34.00;34.40;;;;;;4994381;28;19910;-76
2022/04/14 13:24:07;;;;;;;;;;;32.50;37.40;;;;;;4994277;28;19976;-76
2022/04/14 13:26:32;;;;;;;;;;;32.10;38.80;;;;;;4994200;28;19917;-76
2022/04/14 13:28:58;;;;;;;;;;;32.80;37.70;;;;;;4994663;28;19990;-78
2022/04/14 13:31:23;;;;;;;;;;;39.20;35.80;;;;;;4994377;28;19910;-77
2022/04/14 13:33:49;;;;;;;;;;;43.60;32.20;;;;;;4994399;28;19944;-78
2022/04/14 13:36:14;;;;;;;;;;;42.00;31.30;;;;;;4994552;28;20290;-78
2022/04/14 13:38:40;;;;;;;;;;;42.00;29.90;;;;;;4994307;28;19917;-78
2022/04/14 13:41:06;;;;;;;;;;;37.50;33.00;;;;;;4994206;28;19914;-78
2022/04/14 13:43:31;;;;;;;;;;;37.00;33.20;;;;;;4976828;28;19910;-77
2022/04/14 13:45:57;;;;;;;;;;;40.70;32.20;;;;;;4994244;28;20303;-77
2022/04/14 13:48:22;;;;;;;;;;;40.00;30.70;;;;;;4994247;28;19941;-77
2022/04/14 13:50:48;;;;;;;;;;;35.60;33.50;;;;;;4994155;28;19910;-78
2022/04/14 13:53:17;;;;;;;;;;;32.80;36.20;;;;;;4996154;28;19964;-77
2022/04/14 13:55:43;;;;;;;;;;;32.20;37.80;;;;;;4998190;28;19910;-75
2022/04/14 13:58:08;;;;;;;;;;;32.00;38.60;;;;;;4998196;28;19964;-75
2022/04/14 14:00:34;;;;;;;;;;;33.00;38.40;;;;;;4980474;28;20384;-77
2022/04/14 14:03:01;;;;;;;;;;;38.30;33.70;;;;;;4998074;28;19956;-77
2022/04/14 14:05:27;;;;;;;;;;;40.90;32.30;;;;;;4998023;28;20334;-77
2022/04/14 14:07:53;;;;;;;;;;;39.60;30.60;;;;;;4980508;28;19941;-78
2022/04/14 14:10:18;;;;;;;;;;;39.00;30.40;;;;;;4980461;28;20014;-79
2022/04/14 14:12:44;;;;;;;;;;;42.60;29.60;;;;;;4998067;28;20263;-77
2022/04/14 14:15:10;;;;;;;;;;;44.60;29.20;;;;;;4997604;28;19996;-79
2022/04/14 14:17:39;;;;;;;;;;;39.60;31.60;;;;;;4997787;28;19918;-76